This is the latest recevied weather packets stored in our database for station/object EA5EN. If no packets are shown the sender has not sent any weather packets the latest 10 day(s).
| Time | Temp. | Humidity | Pressure | Rain* | Wind** | Luminosity | Snow |
|---|---|---|---|---|---|---|---|
| 1777221367 | 21.11° C | 54% | 1017.4 hPa | 0 mm | - | - | - |
| 1777220782 | 20.56° C | 53% | 1017.5 hPa | 0 mm | - | - | - |
| 1777214749 | 20.56° C | 58% | 1017.7 hPa | 0 mm | - | - | - |
| 1777209363 | 22.22° C | 44% | 1018.1 hPa | 0 mm | - | - | - |
| 1777208757 | 21.67° C | 48% | 1018.3 hPa | 0 mm | - | - | - |
| 1777205732 | 21.11° C | 54% | 1018.6 hPa | 0 mm | - | - | - |
| 1777198528 | 19.44° C | 63% | 1019.1 hPa | 0 mm | - | - | - |
| 1777196168 | 18.89° C | 66% | 1019.4 hPa | 0 mm | - | - | - |
| 1777191931 | 18.33° C | 73% | 1019.2 hPa | 0 mm | - | - | - |
| 1777189570 | 17.78° C | 74% | 1019 hPa | 0 mm | - | - | - |
| 1777182973 | 12.78° C | 88% | 1018.1 hPa | 0 mm | - | - | - |
| 1777180551 | 12.78° C | 87% | 1017.5 hPa | 0 mm | - | - | - |
| 1777176920 | 13.33° C | 90% | 1017.4 hPa | 0 mm | - | - | - |
| 1777173348 | 13.89° C | 91% | 1017.4 hPa | 0 mm | - | - | - |
| 1777172743 | 13.89° C | 91% | 1017.5 hPa | 0 mm | - | - | - |
| 1777172138 | 13.89° C | 92% | 1017.6 hPa | 0 mm | - | - | - |
| 1777171533 | 13.89° C | 92% | 1017.5 hPa | 0 mm | - | - | - |
| 1777170927 | 13.33° C | 92% | 1017.6 hPa | 0 mm | - | - | - |
| 1777170322 | 13.33° C | 92% | 1017.5 hPa | 0 mm | - | - | - |
| 1777169738 | 13.33° C | 92% | 1017.5 hPa | 0 mm | - | - | - |
| 1777163725 | 14.44° C | 88% | 1018 hPa | 0 mm | - | - | - |
| 1777161365 | 15° C | 87% | 1018.3 hPa | 0 mm | - | - | - |
| 1777155918 | 15.56° C | 85% | 1018.7 hPa | 0 mm | - | - | - |
| 1777154768 | 15.56° C | 85% | 1018.6 hPa | 0 mm | - | - | - |
| 1777152346 | 15° C | 85% | 1018.5 hPa | 0 mm | - | - | - |
* Rain latest hour (hover to see other rain measurements)
** Current wind speed in m/s (hover to see current wind gust speed)